Time;durP1;ratioP1;P1;durP2;ratioP2;P2;SDS_P1;SDS_P2;PMS_P1;PMS_P2;Temp;Humidity;BMP_temperature;BMP_pressure;BME280_temperature;BME280_humidity;BME280_pressure;Samples;Min_cycle;Max_cycle;Signal;HPM_P1;HPM_P2
2021/03/24 00:00:36;;;;;;;;;;;7.90;71.00;;;;;;5050047;28;20416;-61
2021/03/24 00:03:01;;;;;;;;;;;7.90;71.10;;;;;;5030918;28;19917;-58
2021/03/24 00:05:28;;;;;;;;;;;7.80;71.10;;;;;;5042601;28;19958;-60
2021/03/24 00:07:53;;;;;;;;;;;7.80;71.10;;;;;;5037477;28;20296;-60
2021/03/24 00:10:19;;;;;;;;;;;7.80;71.10;;;;;;5032303;28;19973;-57
2021/03/24 00:12:44;;;;;;;;;;;7.80;71.20;;;;;;5036221;28;20292;-61
2021/03/24 00:15:10;;;;;;;;;;;7.70;71.30;;;;;;5043548;28;19954;-58
2021/03/24 00:17:36;;;;;;;;;;;7.80;71.30;;;;;;5054480;28;19998;-60
2021/03/24 00:20:02;;;;;;;;;;;7.70;71.30;;;;;;5026809;28;19952;-59
2021/03/24 00:22:27;;;;;;;;;;;7.70;71.40;;;;;;5047908;28;20008;-59
2021/03/24 00:24:53;;;;;;;;;;;7.70;71.40;;;;;;5049514;28;20049;-60
2021/03/24 00:27:18;;;;;;;;;;;7.70;71.40;;;;;;5047084;28;19924;-58
2021/03/24 00:29:44;;;;;;;;;;;7.70;71.40;;;;;;5027204;28;19917;-58
2021/03/24 00:32:09;;;;;;;;;;;7.60;71.40;;;;;;5048469;28;20348;-58
2021/03/24 00:34:35;;;;;;;;;;;7.60;71.50;;;;;;5049213;28;19936;-61
2021/03/24 00:37:00;;;;;;;;;;;7.60;71.60;;;;;;5048325;28;20023;-60
2021/03/24 00:39:26;;;;;;;;;;;7.60;71.60;;;;;;5048882;28;20395;-57
2021/03/24 00:41:51;;;;;;;;;;;7.50;71.60;;;;;;5058146;28;20007;-59
2021/03/24 00:44:17;;;;;;;;;;;7.60;71.80;;;;;;5048656;28;19909;-57
2021/03/24 00:46:42;;;;;;;;;;;7.50;71.80;;;;;;5056411;28;20391;-57
2021/03/24 00:49:08;;;;;;;;;;;7.50;71.80;;;;;;5016806;28;20021;-60
2021/03/24 00:51:33;;;;;;;;;;;7.50;71.90;;;;;;5040656;28;19913;-60
2021/03/24 00:53:58;;;;;;;;;;;7.50;71.90;;;;;;5035428;28;19905;-57
2021/03/24 00:56:24;;;;;;;;;;;7.40;72.00;;;;;;5040474;28;19951;-59
2021/03/24 00:58:49;;;;;;;;;;;7.40;72.00;;;;;;5036108;28;20015;-59
2021/03/24 01:01:15;;;;;;;;;;;7.40;72.00;;;;;;5056956;28;19913;-58
2021/03/24 01:03:40;;;;;;;;;;;7.40;72.20;;;;;;5028791;28;19913;-57
2021/03/24 01:06:06;;;;;;;;;;;7.40;72.10;;;;;;5038477;28;19913;-61
2021/03/24 01:08:31;;;;;;;;;;;7.30;72.20;;;;;;5031956;28;19909;-60
2021/03/24 01:10:57;;;;;;;;;;;7.30;72.30;;;;;;5052395;28;19956;-59
2021/03/24 01:13:23;;;;;;;;;;;7.30;72.40;;;;;;5030176;28;19921;-59
2021/03/24 01:15:48;;;;;;;;;;;7.30;72.50;;;;;;5040765;28;19915;-59
2021/03/24 01:18:14;;;;;;;;;;;7.30;72.30;;;;;;5033342;28;19959;-58
2021/03/24 01:20:39;;;;;;;;;;;7.30;72.40;;;;;;5040882;28;19913;-57
2021/03/24 01:23:05;;;;;;;;;;;7.30;72.50;;;;;;5027932;28;19909;-61
2021/03/24 01:25:30;;;;;;;;;;;7.20;72.60;;;;;;5042762;28;19908;-57
2021/03/24 01:27:56;;;;;;;;;;;7.20;72.50;;;;;;5033557;28;20296;-59
2021/03/24 01:30:22;;;;;;;;;;;7.20;72.60;;;;;;5053121;28;19913;-61
2021/03/24 01:32:48;;;;;;;;;;;7.20;72.60;;;;;;5035532;28;19915;-58
2021/03/24 01:35:14;;;;;;;;;;;7.10;72.70;;;;;;5041551;28;20025;-60
2021/03/24 01:37:40;;;;;;;;;;;7.10;72.60;;;;;;5031081;28;20052;-61
2021/03/24 01:40:09;;;;;;;;;;;7.10;72.80;;;;;;5042839;28;19917;-60
2021/03/24 01:42:34;;;;;;;;;;;7.10;72.80;;;;;;5037548;28;20004;-59
2021/03/24 01:45:02;;;;;;;;;;;7.10;72.80;;;;;;5041434;28;19912;-60
2021/03/24 01:47:28;;;;;;;;;;;7.10;72.90;;;;;;5031224;28;19909;-60
2021/03/24 01:49:54;;;;;;;;;;;7.00;72.90;;;;;;5049173;28;19917;-60
2021/03/24 01:52:19;;;;;;;;;;;7.00;73.00;;;;;;5031361;28;20376;-57
2021/03/24 01:54:45;;;;;;;;;;;7.00;73.00;;;;;;5053784;28;19921;-57
2021/03/24 01:57:14;;;;;;;;;;;7.00;73.10;;;;;;5025298;28;19909;-59
2021/03/24 01:59:39;;;;;;;;;;;7.00;73.10;;;;;;5029339;28;19917;-57
2021/03/24 02:02:06;;;;;;;;;;;7.00;73.10;;;;;;5034514;28;20318;-58
2021/03/24 02:04:31;;;;;;;;;;;6.90;73.10;;;;;;5043788;28;19916;-61
2021/03/24 02:06:57;;;;;;;;;;;6.90;73.20;;;;;;5044952;28;19913;-60
2021/03/24 02:09:35;;;;;;;;;;;6.90;73.30;;;;;;5042469;28;19963;-58
2021/03/24 02:12:03;;;;;;;;;;;6.90;73.20;;;;;;5025169;28;19912;-60
2021/03/24 02:14:31;;;;;;;;;;;6.80;73.20;;;;;;5038080;28;19913;-59
2021/03/24 02:16:56;;;;;;;;;;;6.80;73.20;;;;;;5034463;28;19924;-58
2021/03/24 02:19:35;;;;;;;;;;;6.80;73.30;;;;;;5033345;28;19913;-59
2021/03/24 02:22:00;;;;;;;;;;;6.80;73.30;;;;;;5035219;28;19913;-58
2021/03/24 02:24:39;;;;;;;;;;;6.80;73.30;;;;;;5032253;28;19916;-58
2021/03/24 02:27:09;;;;;;;;;;;6.80;73.30;;;;;;5031706;28;19921;-58
2021/03/24 02:29:35;;;;;;;;;;;6.80;73.40;;;;;;5029804;28;20383;-58
2021/03/24 02:32:01;;;;;;;;;;;6.70;73.50;;;;;;5052057;28;19917;-59
2021/03/24 02:34:27;;;;;;;;;;;6.70;73.50;;;;;;5039835;28;19909;-59
2021/03/24 02:36:52;;;;;;;;;;;6.70;73.60;;;;;;5042956;28;19909;-58
2021/03/24 02:39:18;;;;;;;;;;;6.70;73.60;;;;;;5028236;28;20288;-58
2021/03/24 02:41:43;;;;;;;;;;;6.70;73.60;;;;;;5055950;28;19936;-57
2021/03/24 02:44:10;;;;;;;;;;;6.70;73.60;;;;;;5039770;28;19913;-59
2021/03/24 02:46:35;;;;;;;;;;;6.70;73.70;;;;;;5042597;28;19916;-58
2021/03/24 02:49:01;;;;;;;;;;;6.60;73.60;;;;;;5018721;28;19913;-59
2021/03/24 02:51:26;;;;;;;;;;;6.60;73.60;;;;;;5025542;28;19913;-60
2021/03/24 02:53:52;;;;;;;;;;;6.60;73.70;;;;;;5038626;28;19917;-58
2021/03/24 02:56:17;;;;;;;;;;;6.60;73.80;;;;;;5035617;28;19909;-58
2021/03/24 02:58:43;;;;;;;;;;;6.60;73.80;;;;;;5046194;28;20383;-60
2021/03/24 03:01:18;;;;;;;;;;;6.60;73.90;;;;;;5042396;28;19913;-58
2021/03/24 03:04:04;;;;;;;;;;;6.60;73.90;;;;;;5006533;28;19975;-60
2021/03/24 03:06:30;;;;;;;;;;;6.50;73.90;;;;;;5044415;28;19988;-59
2021/03/24 03:08:59;;;;;;;;;;;6.50;74.00;;;;;;5033829;28;20388;-61
2021/03/24 03:11:31;;;;;;;;;;;6.40;74.00;;;;;;5034309;28;19909;-57
2021/03/24 03:13:58;;;;;;;;;;;6.50;74.10;;;;;;5053335;28;19948;-58
2021/03/24 03:16:43;;;;;;;;;;;6.50;74.10;;;;;;5022795;28;19925;-60
2021/03/24 03:19:10;;;;;;;;;;;6.40;74.90;;;;;;5037180;28;19921;-57
2021/03/24 03:21:43;;;;;;;;;;;6.40;74.20;;;;;;5043943;28;19999;-58
2021/03/24 03:24:09;;;;;;;;;;;6.40;74.20;;;;;;5040075;28;20549;-60
2021/03/24 03:26:34;;;;;;;;;;;6.40;74.20;;;;;;5048548;28;20319;-57
2021/03/24 03:29:03;;;;;;;;;;;6.40;74.40;;;;;;5031562;28;19916;-59
2021/03/24 03:31:30;;;;;;;;;;;6.30;74.40;;;;;;5031173;28;20380;-60
2021/03/24 03:33:55;;;;;;;;;;;6.30;74.30;;;;;;5030953;28;20287;-60
2021/03/24 03:36:21;;;;;;;;;;;6.40;74.40;;;;;;5032315;28;19917;-57
2021/03/24 03:38:46;;;;;;;;;;;6.30;74.30;;;;;;5031303;28;19925;-59
2021/03/24 03:41:12;;;;;;;;;;;6.30;74.40;;;;;;5038591;28;19933;-59
2021/03/24 03:43:42;;;;;;;;;;;6.30;74.40;;;;;;5056283;28;20004;-58
2021/03/24 03:46:07;;;;;;;;;;;6.30;74.40;;;;;;5022508;28;19917;-60
2021/03/24 03:48:32;;;;;;;;;;;6.30;74.40;;;;;;5031977;28;19909;-60
2021/03/24 03:50:59;;;;;;;;;;;6.20;74.50;;;;;;5034348;28;19913;-59
2021/03/24 03:53:46;;;;;;;;;;;6.30;74.50;;;;;;5034711;28;19917;-59
2021/03/24 03:56:17;;;;;;;;;;;6.20;74.50;;;;;;5015234;28;19915;-56
2021/03/24 03:58:49;;;;;;;;;;;6.20;74.60;;;;;;5026028;28;19959;-59
2021/03/24 04:01:24;;;;;;;;;;;6.20;74.60;;;;;;5035614;28;19924;-60
2021/03/24 04:04:00;;;;;;;;;;;6.20;74.70;;;;;;5025583;28;20000;-57
2021/03/24 04:06:32;;;;;;;;;;;6.10;74.70;;;;;;5033664;28;19909;-60
2021/03/24 04:08:57;;;;;;;;;;;6.20;74.80;;;;;;5046628;28;20291;-58
2021/03/24 04:11:23;;;;;;;;;;;6.10;74.70;;;;;;5041595;28;19913;-58
2021/03/24 04:13:52;;;;;;;;;;;6.10;74.80;;;;;;5051338;28;19909;-58
2021/03/24 04:16:18;;;;;;;;;;;6.10;74.80;;;;;;5032881;28;20265;-59
2021/03/24 04:18:51;;;;;;;;;;;6.10;74.80;;;;;;5038287;28;19916;-59
2021/03/24 04:21:17;;;;;;;;;;;6.10;74.90;;;;;;5036220;28;19908;-59
2021/03/24 04:23:44;;;;;;;;;;;6.10;75.00;;;;;;5053058;28;20434;-60
2021/03/24 04:26:14;;;;;;;;;;;6.10;74.90;;;;;;5026900;28;19916;-58
2021/03/24 04:28:40;;;;;;;;;;;6.00;74.90;;;;;;5049197;28;19909;-57
2021/03/24 04:31:07;;;;;;;;;;;6.00;75.00;;;;;;5026847;28;19920;-58
2021/03/24 04:33:32;;;;;;;;;;;6.00;75.00;;;;;;5032243;28;19913;-61
2021/03/24 04:35:59;;;;;;;;;;;6.00;75.00;;;;;;5003746;28;19919;-57
2021/03/24 04:38:27;;;;;;;;;;;6.00;75.10;;;;;;5047203;28;19921;-60
2021/03/24 04:40:55;;;;;;;;;;;6.00;75.10;;;;;;5026072;28;19979;-58
2021/03/24 04:43:21;;;;;;;;;;;5.90;75.00;;;;;;5033895;28;20324;-58
2021/03/24 04:45:48;;;;;;;;;;;5.90;75.10;;;;;;5042691;28;20004;-58
2021/03/24 04:48:18;;;;;;;;;;;5.90;75.10;;;;;;5023665;28;19921;-58
2021/03/24 04:50:45;;;;;;;;;;;5.90;75.20;;;;;;5031172;28;19960;-56
2021/03/24 04:53:11;;;;;;;;;;;5.90;75.20;;;;;;5028941;28;19924;-59
2021/03/24 04:55:36;;;;;;;;;;;5.90;75.30;;;;;;5017949;28;19948;-61
2021/03/24 04:58:02;;;;;;;;;;;5.80;75.30;;;;;;5032323;28;19967;-59
2021/03/24 05:00:30;;;;;;;;;;;5.80;75.30;;;;;;5037412;28;19913;-61
2021/03/24 05:02:56;;;;;;;;;;;5.80;75.20;;;;;;5031119;28;19913;-60
2021/03/24 05:05:28;;;;;;;;;;;5.80;75.20;;;;;;5023365;28;19986;-60
2021/03/24 05:07:55;;;;;;;;;;;5.80;75.20;;;;;;5030636;28;19979;-61
2021/03/24 05:10:21;;;;;;;;;;;5.80;75.30;;;;;;5019637;28;19966;-60
2021/03/24 05:12:48;;;;;;;;;;;5.80;75.30;;;;;;5038068;28;20348;-60
2021/03/24 05:15:17;;;;;;;;;;;5.70;75.40;;;;;;5020633;28;19920;-58
2021/03/24 05:17:42;;;;;;;;;;;5.70;75.40;;;;;;5035461;28;19916;-56
2021/03/24 05:20:15;;;;;;;;;;;5.70;75.40;;;;;;5037791;28;19929;-58
2021/03/24 05:22:44;;;;;;;;;;;5.70;75.40;;;;;;5030268;28;19909;-58
2021/03/24 05:25:20;;;;;;;;;;;5.70;75.40;;;;;;5034412;28;20353;-57
2021/03/24 05:28:06;;;;;;;;;;;5.70;75.50;;;;;;5033913;28;19959;-59
2021/03/24 05:30:32;;;;;;;;;;;5.70;75.50;;;;;;5035437;28;19957;-59
2021/03/24 05:33:05;;;;;;;;;;;5.70;75.60;;;;;;5042386;28;19915;-58
2021/03/24 05:35:37;;;;;;;;;;;5.70;75.60;;;;;;5031882;28;19909;-58
2021/03/24 05:38:03;;;;;;;;;;;5.60;75.60;;;;;;5042787;28;20262;-58
2021/03/24 05:40:33;;;;;;;;;;;5.60;75.50;;;;;;5045030;28;19917;-58
2021/03/24 05:43:17;;;;;;;;;;;5.60;75.70;;;;;;5014571;28;20340;-59
2021/03/24 05:45:46;;;;;;;;;;;5.60;75.60;;;;;;5041000;28;20407;-58
2021/03/24 05:48:24;;;;;;;;;;;5.60;75.60;;;;;;5042733;28;20349;-59
2021/03/24 05:50:50;;;;;;;;;;;5.60;75.70;;;;;;5028128;28;20024;-57
2021/03/24 05:53:33;;;;;;;;;;;5.60;75.70;;;;;;5043211;28;19996;-60
2021/03/24 05:56:04;;;;;;;;;;;5.60;75.70;;;;;;5039468;28;19999;-60
2021/03/24 05:58:41;;;;;;;;;;;5.60;75.70;;;;;;5035470;28;20372;-59
2021/03/24 06:01:09;;;;;;;;;;;5.50;75.70;;;;;;5054439;28;20028;-62
2021/03/24 06:03:50;;;;;;;;;;;5.50;75.80;;;;;;5046305;28;19942;-58
2021/03/24 06:06:28;;;;;;;;;;;5.50;75.80;;;;;;5043117;28;19964;-58
2021/03/24 06:08:56;;;;;;;;;;;5.50;75.80;;;;;;5036753;28;20372;-57
2021/03/24 06:11:40;;;;;;;;;;;5.50;75.80;;;;;;5044943;28;19909;-57
2021/03/24 06:14:13;;;;;;;;;;;5.50;75.80;;;;;;5050776;28;20220;-57
2021/03/24 06:16:58;;;;;;;;;;;5.50;75.80;;;;;;5020016;28;19917;-58
2021/03/24 06:19:25;;;;;;;;;;;5.50;75.90;;;;;;5033938;28;20307;-58
2021/03/24 06:21:51;;;;;;;;;;;5.50;75.90;;;;;;5052044;28;19921;-56
2021/03/24 06:24:33;;;;;;;;;;;5.50;75.90;;;;;;5045019;28;20363;-60
2021/03/24 06:27:08;;;;;;;;;;;5.50;75.90;;;;;;5052254;28;19909;-58
2021/03/24 06:29:52;;;;;;;;;;;5.50;75.90;;;;;;5026894;28;19916;-58
2021/03/24 06:32:20;;;;;;;;;;;5.50;76.00;;;;;;5063117;28;19920;-60
2021/03/24 06:34:45;;;;;;;;;;;5.50;76.70;;;;;;5041214;28;19909;-60
2021/03/24 06:37:30;;;;;;;;;;;5.40;76.10;;;;;;5047778;28;19916;-57
2021/03/24 06:39:55;;;;;;;;;;;5.40;76.10;;;;;;5041414;28;19975;-60
2021/03/24 06:42:39;;;;;;;;;;;5.40;76.20;;;;;;5047260;28;19909;-59
2021/03/24 06:45:16;;;;;;;;;;;5.40;76.30;;;;;;5056510;28;19913;-57
2021/03/24 06:47:41;;;;;;;;;;;5.40;76.20;;;;;;5018211;28;20254;-60
2021/03/24 06:50:15;;;;;;;;;;;5.40;76.20;;;;;;5045996;28;19987;-58
2021/03/24 06:52:44;;;;;;;;;;;5.40;76.20;;;;;;5028244;28;19991;-59
2021/03/24 06:55:28;;;;;;;;;;;5.40;76.20;;;;;;5037538;28;19947;-58
2021/03/24 06:58:13;;;;;;;;;;;5.40;76.20;;;;;;5028371;28;19913;-60
2021/03/24 07:00:54;;;;;;;;;;;5.40;76.10;;;;;;5030758;28;19917;-60
2021/03/24 07:03:40;;;;;;;;;;;5.40;76.10;;;;;;5044293;28;19924;-59
2021/03/24 07:06:05;;;;;;;;;;;5.40;76.10;;;;;;5021203;28;19916;-58
2021/03/24 07:08:40;;;;;;;;;;;5.40;76.10;;;;;;5060883;28;19914;-58
2021/03/24 07:11:06;;;;;;;;;;;5.40;76.10;;;;;;5046932;28;19913;-59
2021/03/24 07:13:31;;;;;;;;;;;5.40;76.10;;;;;;5045521;28;19909;-57
2021/03/24 07:16:06;;;;;;;;;;;5.30;76.00;;;;;;5030139;28;19913;-58
2021/03/24 07:18:41;;;;;;;;;;;5.40;76.00;;;;;;5029642;28;19913;-57
2021/03/24 07:21:10;;;;;;;;;;;5.40;76.00;;;;;;5032023;28;19924;-61
2021/03/24 07:23:42;;;;;;;;;;;5.40;75.90;;;;;;5035193;28;19909;-59
2021/03/24 07:26:23;;;;;;;;;;;5.40;76.00;;;;;;5051154;28;19960;-58
2021/03/24 07:29:07;;;;;;;;;;;5.40;75.90;;;;;;5033274;28;19967;-60
2021/03/24 07:31:54;;;;;;;;;;;5.40;75.90;;;;;;5038461;28;20020;-60
2021/03/24 07:34:25;;;;;;;;;;;5.40;76.00;;;;;;5047791;28;19917;-59
2021/03/24 07:37:09;;;;;;;;;;;5.40;76.00;;;;;;5039896;28;19913;-59
2021/03/24 07:39:34;;;;;;;;;;;5.40;76.00;;;;;;5034719;28;19948;-57
2021/03/24 07:42:18;;;;;;;;;;;5.40;76.00;;;;;;5032521;28;20480;-59
2021/03/24 07:44:51;;;;;;;;;;;5.40;76.00;;;;;;5036565;28;19921;-60
2021/03/24 07:47:32;;;;;;;;;;;5.40;76.00;;;;;;5014056;28;20100;-60
2021/03/24 07:50:10;;;;;;;;;;;5.40;76.00;;;;;;5029384;28;20419;-60
2021/03/24 07:52:54;;;;;;;;;;;5.40;75.90;;;;;;5011124;28;20345;-58
2021/03/24 07:55:43;;;;;;;;;;;5.40;75.90;;;;;;5029076;28;20312;-59
2021/03/24 07:58:24;;;;;;;;;;;5.40;75.90;;;;;;5029843;28;19983;-60
2021/03/24 08:00:55;;;;;;;;;;;5.40;75.90;;;;;;5006189;28;20277;-59
2021/03/24 08:03:22;;;;;;;;;;;5.40;75.90;;;;;;5010700;28;19957;-57
2021/03/24 08:06:06;;;;;;;;;;;5.40;76.00;;;;;;5027760;28;19932;-60
2021/03/24 08:08:43;;;;;;;;;;;5.40;76.00;;;;;;5022832;28;19917;-58
2021/03/24 08:11:20;;;;;;;;;;;5.40;75.90;;;;;;5024523;28;19921;-58
2021/03/24 08:13:52;;;;;;;;;;;5.40;75.90;;;;;;5025827;28;19924;-58
2021/03/24 08:16:34;;;;;;;;;;;5.40;76.00;;;;;;5025870;28;20388;-60
2021/03/24 08:19:19;;;;;;;;;;;5.50;76.10;;;;;;5028079;28;19917;-58
2021/03/24 08:22:03;;;;;;;;;;;5.50;76.30;;;;;;5027078;28;19928;-58
2021/03/24 08:24:35;;;;;;;;;;;5.50;76.50;;;;;;5032260;28;19920;-59
2021/03/24 08:27:02;;;;;;;;;;;5.50;76.60;;;;;;5031271;28;19987;-57
2021/03/24 08:29:31;;;;;;;;;;;5.50;76.80;;;;;;5028296;28;19913;-59
2021/03/24 08:32:02;;;;;;;;;;;5.50;76.90;;;;;;5033348;28;20011;-58
2021/03/24 08:34:28;;;;;;;;;;;5.50;76.70;;;;;;5023992;28;19920;-60
2021/03/24 08:37:03;;;;;;;;;;;5.50;76.70;;;;;;5026549;28;20027;-59
2021/03/24 08:39:47;;;;;;;;;;;5.50;76.70;;;;;;5025469;28;19921;-58
2021/03/24 08:42:15;;;;;;;;;;;5.50;76.70;;;;;;5022439;28;20454;-58
2021/03/24 08:45:00;;;;;;;;;;;5.50;76.90;;;;;;5039288;28;20349;-59
2021/03/24 08:47:27;;;;;;;;;;;5.60;76.90;;;;;;5004751;28;20399;-58
2021/03/24 08:49:53;;;;;;;;;;;5.60;76.80;;;;;;5004688;28;20373;-57
2021/03/24 08:52:57;;;;;;;;;;;5.60;76.90;;;;;;4987672;28;21226;-60
2021/03/24 08:55:39;;;;;;;;;;;5.60;76.90;;;;;;4998495;28;19957;-60
2021/03/24 08:58:23;;;;;;;;;;;5.60;77.00;;;;;;4987982;28;20011;-58
2021/03/24 09:00:56;;;;;;;;;;;5.60;77.10;;;;;;5000717;28;19921;-57
2021/03/24 09:03:37;;;;;;;;;;;5.70;77.10;;;;;;5022911;28;20399;-60
2021/03/24 09:06:13;;;;;;;;;;;5.80;77.10;;;;;;5024396;28;19914;-59
2021/03/24 09:08:38;;;;;;;;;;;5.70;77.20;;;;;;5020646;28;20276;-57
2021/03/24 09:11:06;;;;;;;;;;;5.70;77.20;;;;;;5024347;28;19917;-63
2021/03/24 09:13:34;;;;;;;;;;;5.70;77.20;;;;;;5029062;28;19913;-60
2021/03/24 09:16:18;;;;;;;;;;;5.70;77.30;;;;;;5047404;28;19916;-57
2021/03/24 09:18:47;;;;;;;;;;;5.70;77.40;;;;;;5028356;28;19943;-60
2021/03/24 09:21:25;;;;;;;;;;;5.70;77.60;;;;;;5018981;28;19921;-60
2021/03/24 09:24:09;;;;;;;;;;;5.70;78.10;;;;;;5013699;28;20285;-58
2021/03/24 09:26:53;;;;;;;;;;;5.80;77.80;;;;;;5025935;28;19924;-59
2021/03/24 09:29:39;;;;;;;;;;;5.80;78.40;;;;;;5027219;28;19917;-60
2021/03/24 09:32:05;;;;;;;;;;;5.80;78.40;;;;;;5022681;28;20289;-59
2021/03/24 09:34:42;;;;;;;;;;;5.90;78.50;;;;;;5038061;28;19921;-59
2021/03/24 09:37:09;;;;;;;;;;;5.80;77.90;;;;;;5022173;28;20336;-56
2021/03/24 09:39:48;;;;;;;;;;;5.90;78.30;;;;;;5023983;28;19965;-60
2021/03/24 09:42:25;;;;;;;;;;;5.90;78.20;;;;;;5024477;28;19956;-60
2021/03/24 09:44:54;;;;;;;;;;;6.00;78.70;;;;;;5029063;28;19917;-57
2021/03/24 09:47:29;;;;;;;;;;;5.90;78.70;;;;;;5028692;28;19928;-57
2021/03/24 09:50:02;;;;;;;;;;;6.00;78.60;;;;;;5024078;28;20011;-57
2021/03/24 09:52:29;;;;;;;;;;;6.00;78.60;;;;;;5027013;28;20012;-58
2021/03/24 09:54:56;;;;;;;;;;;6.00;78.50;;;;;;5027932;28;19967;-60
2021/03/24 09:57:21;;;;;;;;;;;6.10;78.70;;;;;;5029888;28;19920;-61
2021/03/24 09:59:48;;;;;;;;;;;6.10;79.30;;;;;;5023862;28;19922;-60
2021/03/24 10:02:17;;;;;;;;;;;6.10;79.10;;;;;;5020784;28;19914;-60
2021/03/24 10:04:45;;;;;;;;;;;6.10;78.70;;;;;;5032741;28;19971;-61
2021/03/24 10:07:18;;;;;;;;;;;6.20;78.50;;;;;;5028175;28;19924;-59
2021/03/24 10:09:54;;;;;;;;;;;6.20;78.50;;;;;;5043710;28;19913;-58
2021/03/24 10:12:30;;;;;;;;;;;6.20;78.70;;;;;;5009137;28;19924;-60
2021/03/24 10:15:01;;;;;;;;;;;6.20;78.60;;;;;;4999500;28;19917;-59
2021/03/24 10:17:28;;;;;;;;;;;6.30;78.50;;;;;;5031244;28;19928;-61
2021/03/24 10:19:58;;;;;;;;;;;6.30;78.30;;;;;;5025116;28;20375;-60
2021/03/24 10:22:24;;;;;;;;;;;6.30;78.30;;;;;;5026688;28;19920;-59
2021/03/24 10:25:07;;;;;;;;;;;6.30;78.20;;;;;;5027425;28;19917;-59
2021/03/24 10:27:32;;;;;;;;;;;6.40;78.30;;;;;;5029609;28;19916;-59
2021/03/24 10:29:58;;;;;;;;;;;6.40;78.40;;;;;;5021088;28;20415;-59
2021/03/24 10:32:23;;;;;;;;;;;6.40;78.40;;;;;;5030533;28;20873;-57
2021/03/24 10:34:49;;;;;;;;;;;6.50;78.30;;;;;;5027470;28;20373;-57
2021/03/24 10:37:20;;;;;;;;;;;6.50;78.30;;;;;;5024454;28;20430;-57
2021/03/24 10:39:48;;;;;;;;;;;6.50;78.20;;;;;;4990767;28;20429;-57
2021/03/24 10:42:18;;;;;;;;;;;6.50;78.20;;;;;;4987448;28;19922;-59
2021/03/24 10:44:52;;;;;;;;;;;6.60;78.10;;;;;;4988019;28;19921;-61
2021/03/24 10:47:19;;;;;;;;;;;6.60;78.00;;;;;;4985592;28;19925;-60
2021/03/24 10:50:00;;;;;;;;;;;6.60;77.80;;;;;;4985354;28;21279;-59
2021/03/24 10:52:27;;;;;;;;;;;6.70;77.80;;;;;;4988408;28;20278;-60
2021/03/24 10:54:59;;;;;;;;;;;6.70;77.70;;;;;;5008279;28;19921;-59
2021/03/24 10:57:25;;;;;;;;;;;6.70;77.60;;;;;;4983314;28;19997;-58
2021/03/24 11:00:02;;;;;;;;;;;6.80;77.60;;;;;;4984677;28;20025;-61
2021/03/24 11:02:27;;;;;;;;;;;6.80;77.50;;;;;;5002767;28;19940;-59
2021/03/24 11:05:09;;;;;;;;;;;6.80;77.50;;;;;;4994648;28;19950;-57
2021/03/24 11:07:42;;;;;;;;;;;6.90;77.40;;;;;;4994554;28;20000;-60
2021/03/24 11:10:26;;;;;;;;;;;6.90;77.40;;;;;;4991055;28;20382;-59
2021/03/24 11:12:55;;;;;;;;;;;7.00;77.30;;;;;;4987111;28;20346;-58
2021/03/24 11:15:40;;;;;;;;;;;7.00;77.20;;;;;;5018429;28;19914;-61
2021/03/24 11:18:07;;;;;;;;;;;7.00;77.10;;;;;;4981087;28;19967;-60
2021/03/24 11:20:38;;;;;;;;;;;7.10;77.10;;;;;;5003998;28;20389;-61
2021/03/24 11:23:04;;;;;;;;;;;7.10;77.00;;;;;;5018531;28;19920;-61
2021/03/24 11:25:34;;;;;;;;;;;7.20;76.90;;;;;;5000000;28;19917;-60
2021/03/24 11:28:04;;;;;;;;;;;7.20;76.90;;;;;;4999561;28;20201;-57
2021/03/24 11:30:39;;;;;;;;;;;7.20;76.80;;;;;;5002037;28;19965;-57
2021/03/24 11:33:37;;;;;;;;;;;7.30;76.80;;;;;;4986447;28;19917;-58
2021/03/24 11:36:08;;;;;;;;;;;7.30;76.70;;;;;;4964600;28;19921;-60
2021/03/24 11:39:00;;;;;;;;;;;7.40;76.60;;;;;;5006115;28;19917;-60
2021/03/24 11:41:26;;;;;;;;;;;7.40;76.40;;;;;;5026752;28;19921;-58
2021/03/24 11:43:58;;;;;;;;;;;7.40;76.30;;;;;;5017315;28;19921;-60
2021/03/24 11:46:29;;;;;;;;;;;7.50;76.20;;;;;;5025419;28;19948;-61
2021/03/24 11:49:07;;;;;;;;;;;7.60;76.20;;;;;;5021204;28;20351;-58
2021/03/24 11:51:38;;;;;;;;;;;7.60;76.00;;;;;;5022359;28;20388;-60
2021/03/24 11:54:22;;;;;;;;;;;7.70;75.80;;;;;;5025172;28;19947;-59
2021/03/24 11:56:56;;;;;;;;;;;7.70;75.60;;;;;;5025644;28;20056;-59
2021/03/24 11:59:37;;;;;;;;;;;7.80;75.50;;;;;;5023570;28;19921;-59
2021/03/24 12:02:06;;;;;;;;;;;7.80;75.40;;;;;;5026342;28;19939;-60
2021/03/24 12:04:38;;;;;;;;;;;7.90;75.30;;;;;;5017440;28;19972;-60
2021/03/24 12:07:03;;;;;;;;;;;8.00;75.30;;;;;;5018982;28;20053;-61
2021/03/24 12:09:30;;;;;;;;;;;8.10;75.30;;;;;;5028905;28;19913;-59
2021/03/24 12:12:10;;;;;;;;;;;8.10;75.60;;;;;;5007782;28;20339;-60
2021/03/24 12:14:37;;;;;;;;;;;8.20;75.70;;;;;;5022418;28;19913;-57
2021/03/24 12:17:03;;;;;;;;;;;8.20;75.50;;;;;;5029272;28;19917;-60
2021/03/24 12:19:36;;;;;;;;;;;8.30;75.60;;;;;;5008791;28;19917;-58
2021/03/24 12:22:05;;;;;;;;;;;8.40;75.70;;;;;;5026042;28;19917;-60
2021/03/24 12:24:31;;;;;;;;;;;8.50;75.40;;;;;;5028286;28;19929;-60
2021/03/24 12:27:32;;;;;;;;;;;8.60;75.60;;;;;;5015173;28;19947;-59
2021/03/24 12:30:17;;;;;;;;;;;8.70;75.50;;;;;;4986346;28;20441;-58
2021/03/24 12:32:42;;;;;;;;;;;8.90;74.10;;;;;;5022667;28;20567;-59
2021/03/24 12:35:15;;;;;;;;;;;9.00;73.60;;;;;;5037720;28;20031;-58
2021/03/24 12:37:43;;;;;;;;;;;9.10;73.70;;;;;;5014949;28;20532;-56
2021/03/24 12:40:12;;;;;;;;;;;9.20;73.80;;;;;;5057458;28;19925;-60
2021/03/24 12:42:38;;;;;;;;;;;9.30;73.30;;;;;;5017848;28;20598;-57
2021/03/24 12:45:24;;;;;;;;;;;9.40;72.90;;;;;;5034015;28;19913;-60
2021/03/24 12:47:50;;;;;;;;;;;9.50;72.70;;;;;;5034013;28;19940;-59
2021/03/24 12:50:18;;;;;;;;;;;9.60;72.80;;;;;;5017344;28;19928;-60
2021/03/24 12:52:46;;;;;;;;;;;9.70;72.90;;;;;;5033189;28;19991;-59
2021/03/24 12:55:12;;;;;;;;;;;9.80;72.50;;;;;;5033778;28;20007;-60
2021/03/24 12:57:50;;;;;;;;;;;9.90;72.50;;;;;;5019540;28;19925;-61
2021/03/24 13:00:34;;;;;;;;;;;10.00;71.70;;;;;;5030602;28;20291;-58
2021/03/24 13:03:08;;;;;;;;;;;10.10;70.90;;;;;;5028002;28;20706;-59
2021/03/24 13:05:39;;;;;;;;;;;10.20;70.80;;;;;;5012096;28;19916;-61
2021/03/24 13:08:10;;;;;;;;;;;10.30;71.30;;;;;;5026475;28;19917;-57
2021/03/24 13:10:59;;;;;;;;;;;10.30;71.10;;;;;;5022690;28;20288;-61
2021/03/24 13:13:25;;;;;;;;;;;10.40;69.60;;;;;;5003606;28;19928;-60
2021/03/24 13:15:56;;;;;;;;;;;10.50;69.40;;;;;;5015698;28;21450;-61
2021/03/24 13:18:32;;;;;;;;;;;10.50;69.80;;;;;;5022839;28;20000;-57
2021/03/24 13:21:04;;;;;;;;;;;10.60;69.40;;;;;;5025485;28;19931;-57
2021/03/24 13:23:33;;;;;;;;;;;10.70;69.20;;;;;;5023779;28;20375;-57
2021/03/24 13:26:00;;;;;;;;;;;10.70;69.40;;;;;;5026562;28;20629;-60
2021/03/24 13:28:37;;;;;;;;;;;10.80;68.90;;;;;;5025612;28;19927;-58
2021/03/24 13:31:10;;;;;;;;;;;10.90;68.90;;;;;;5004685;28;19968;-57
2021/03/24 13:33:35;;;;;;;;;;;10.90;69.30;;;;;;5044308;28;20312;-60
2021/03/24 13:36:05;;;;;;;;;;;11.00;68.70;;;;;;5040376;28;19917;-57
2021/03/24 13:38:36;;;;;;;;;;;11.00;67.70;;;;;;5044412;28;19923;-58
2021/03/24 13:41:01;;;;;;;;;;;11.10;66.60;;;;;;5004388;28;22145;-59
2021/03/24 13:43:34;;;;;;;;;;;11.20;66.50;;;;;;5025331;28;19921;-57
2021/03/24 13:46:07;;;;;;;;;;;11.30;66.40;;;;;;5012857;28;19985;-59
2021/03/24 13:48:43;;;;;;;;;;;11.30;66.40;;;;;;5039047;28;19913;-60
2021/03/24 13:51:22;;;;;;;;;;;11.40;67.20;;;;;;5007814;28;20011;-58
2021/03/24 13:53:47;;;;;;;;;;;11.40;66.80;;;;;;5019376;28;19924;-59
2021/03/24 13:56:32;;;;;;;;;;;11.40;66.50;;;;;;5035139;28;19913;-60
2021/03/24 13:58:59;;;;;;;;;;;11.50;65.80;;;;;;5038345;28;19921;-60
2021/03/24 14:01:27;;;;;;;;;;;11.60;66.00;;;;;;5013885;28;20007;-60
2021/03/24 14:03:58;;;;;;;;;;;11.60;64.90;;;;;;5025247;28;19917;-57
2021/03/24 14:06:28;;;;;;;;;;;11.60;64.60;;;;;;5025730;28;19920;-59
2021/03/24 14:09:00;;;;;;;;;;;11.70;65.40;;;;;;5027518;28;20432;-61
2021/03/24 14:11:41;;;;;;;;;;;11.70;64.00;;;;;;5025228;28;19917;-60
2021/03/24 14:14:15;;;;;;;;;;;11.80;63.70;;;;;;5029203;28;19948;-61
2021/03/24 14:16:41;;;;;;;;;;;11.90;62.00;;;;;;5025103;28;19921;-58
2021/03/24 14:19:19;;;;;;;;;;;12.00;62.00;;;;;;5025366;28;19921;-58
2021/03/24 14:21:49;;;;;;;;;;;12.00;60.40;;;;;;5024188;28;19921;-60
2021/03/24 14:24:15;;;;;;;;;;;12.10;59.20;;;;;;5032185;28;19939;-59
2021/03/24 14:26:43;;;;;;;;;;;12.20;59.00;;;;;;5028962;28;20385;-60
2021/03/24 14:29:27;;;;;;;;;;;12.30;58.90;;;;;;5024598;28;19919;-60
2021/03/24 14:32:03;;;;;;;;;;;12.40;58.40;;;;;;5027642;28;20287;-60
2021/03/24 14:34:31;;;;;;;;;;;12.40;58.30;;;;;;5019738;28;19935;-57
2021/03/24 14:36:57;;;;;;;;;;;12.50;58.30;;;;;;4996583;28;19913;-58
2021/03/24 14:39:43;;;;;;;;;;;12.60;58.50;;;;;;5024059;28;19925;-59
2021/03/24 14:42:20;;;;;;;;;;;12.60;59.00;;;;;;5028151;28;20269;-57
2021/03/24 14:45:13;;;;;;;;;;;12.60;59.40;;;;;;5035769;28;19914;-59
2021/03/24 14:47:47;;;;;;;;;;;12.60;59.20;;;;;;5031783;28;19909;-59
2021/03/24 14:50:13;;;;;;;;;;;12.70;58.60;;;;;;5007600;28;20351;-61
2021/03/24 14:52:47;;;;;;;;;;;12.70;58.30;;;;;;5006521;28;20025;-59